createdAt,value
2018-09-29T00:00:03.903Z,1009.85
2018-09-29T00:01:10.111Z,1009.86
2018-09-29T00:02:16.306Z,1009.92
2018-09-29T00:03:22.519Z,1009.97
2018-09-29T00:04:28.691Z,1009.97
2018-09-29T00:05:34.895Z,1009.98
2018-09-29T00:06:41.066Z,1010.00
2018-09-29T00:07:47.266Z,1010.00
2018-09-29T00:08:53.450Z,1009.95
2018-09-29T00:09:59.650Z,1010.03
2018-09-29T00:11:05.840Z,1009.94
2018-09-29T00:12:12.024Z,1009.97
2018-09-29T00:13:18.284Z,1009.99
2018-09-29T00:14:24.409Z,1009.96
2018-09-29T00:15:30.597Z,1009.95
2018-09-29T00:16:36.850Z,1010.03
2018-09-29T00:17:42.969Z,1010.05
2018-09-29T00:18:49.159Z,1009.99
2018-09-29T00:19:55.354Z,1010.00
2018-09-29T00:21:01.537Z,1010.05
2018-09-29T00:22:07.737Z,1010.05
2018-09-29T00:23:13.920Z,1010.05
2018-09-29T00:24:20.117Z,1009.97
2018-09-29T00:25:26.306Z,1009.94
2018-09-29T00:26:32.496Z,1010.02
2018-09-29T00:27:38.691Z,1009.95
2018-09-29T00:28:44.866Z,1010.02
2018-09-29T00:29:51.061Z,1010.05
2018-09-29T00:30:57.248Z,1010.01
2018-09-29T00:32:03.441Z,1010.01
2018-09-29T00:33:09.621Z,1010.01
2018-09-29T00:34:15.819Z,1009.97
2018-09-29T00:35:22.002Z,1010.02
2018-09-29T00:36:28.289Z,1010.00
2018-09-29T00:37:34.369Z,1009.95
2018-09-29T00:38:40.556Z,1010.04
2018-09-29T00:39:46.740Z,1009.99
2018-09-29T00:40:52.924Z,1010.06
2018-09-29T00:41:59.122Z,1010.09
2018-09-29T00:43:05.299Z,1010.05
2018-09-29T00:44:11.487Z,1010.05
2018-09-29T00:45:17.691Z,1010.01
2018-09-29T00:46:23.856Z,1010.00
2018-09-29T00:47:30.037Z,1010.04
2018-09-29T00:48:36.283Z,1009.99
2018-09-29T00:49:42.411Z,1010.08
2018-09-29T00:50:48.582Z,1010.06
2018-09-29T00:51:54.781Z,1010.10
2018-09-29T00:53:00.958Z,1010.09
2018-09-29T00:54:07.173Z,1010.04
2018-09-29T00:55:13.320Z,1010.06
2018-09-29T00:56:19.512Z,1010.06
2018-09-29T00:57:25.676Z,1010.04
2018-09-29T00:58:31.874Z,1010.02
2018-09-29T00:59:38.077Z,1010.03
2018-09-29T01:00:44.283Z,1010.02
2018-09-29T01:01:50.408Z,1010.01
2018-09-29T01:02:56.582Z,1010.08
2018-09-29T01:04:02.782Z,1010.10
2018-09-29T01:05:08.932Z,1010.10
2018-09-29T01:06:15.091Z,1010.08
2018-09-29T01:07:21.300Z,1010.09
2018-09-29T01:08:27.443Z,1010.08
2018-09-29T01:09:33.624Z,1010.11
2018-09-29T01:10:39.784Z,1010.07
2018-09-29T01:11:45.964Z,1010.08
2018-09-29T01:12:52.119Z,1010.07
2018-09-29T01:13:58.294Z,1010.07
2018-09-29T01:15:04.449Z,1010.04
2018-09-29T01:16:10.609Z,1010.08
2018-09-29T01:17:16.769Z,1010.07
2018-09-29T01:18:22.944Z,1010.09
2018-09-29T01:19:29.100Z,1010.15
2018-09-29T01:20:35.292Z,1010.15
2018-09-29T01:21:43.396Z,1010.18
2018-09-29T01:22:47.595Z,1010.21
2018-09-29T01:23:53.759Z,1010.21
2018-09-29T01:24:59.918Z,1010.19
2018-09-29T01:26:06.081Z,1010.22
2018-09-29T01:27:12.243Z,1010.28
2018-09-29T01:28:18.393Z,1010.28
2018-09-29T01:29:24.563Z,1010.32
2018-09-29T01:30:30.727Z,1010.32
2018-09-29T01:31:36.886Z,1010.29
2018-09-29T01:32:43.036Z,1010.27
2018-09-29T01:33:49.280Z,1010.20
2018-09-29T01:34:55.667Z,1010.19
2018-09-29T01:36:02.515Z,1010.18
2018-09-29T01:37:07.690Z,1010.13
2018-09-29T01:38:13.845Z,1010.12
2018-09-29T01:39:20.012Z,1010.15
2018-09-29T01:40:26.169Z,1010.12
2018-09-29T01:41:32.324Z,1010.12
2018-09-29T01:42:38.494Z,1010.10
2018-09-29T01:43:44.675Z,1010.10
2018-09-29T01:44:50.822Z,1010.11
2018-09-29T01:45:56.977Z,1010.08
2018-09-29T01:47:03.161Z,1010.07
2018-09-29T01:48:09.299Z,1010.08
2018-09-29T01:49:15.477Z,1010.04
2018-09-29T01:50:21.626Z,1010.08
2018-09-29T01:51:27.775Z,1010.09
2018-09-29T01:52:33.933Z,1010.05
2018-09-29T01:53:41.103Z,1010.00
2018-09-29T01:54:46.255Z,1010.01
2018-09-29T01:55:52.419Z,1009.99
2018-09-29T01:56:58.567Z,1010.02
2018-09-29T01:58:04.746Z,1009.99
2018-09-29T01:59:10.888Z,1010.01
2018-09-29T02:00:17.051Z,1010.01
2018-09-29T02:01:24.197Z,1009.99
2018-09-29T02:02:29.369Z,1009.93
2018-09-29T02:03:36.534Z,1009.94
2018-09-29T02:04:41.703Z,1009.89
2018-09-29T02:05:47.848Z,1009.89
2018-09-29T02:06:53.998Z,1009.89
2018-09-29T02:08:00.212Z,1009.89
2018-09-29T02:09:06.305Z,1009.95
2018-09-29T02:10:12.460Z,1009.93
2018-09-29T02:11:18.616Z,1009.92
2018-09-29T02:12:24.774Z,1009.93
2018-09-29T02:13:31.285Z,1009.90
2018-09-29T02:14:37.094Z,1009.95
2018-09-29T02:15:43.270Z,1009.85
2018-09-29T02:16:49.382Z,1009.89
2018-09-29T02:17:55.551Z,1009.87
2018-09-29T02:19:01.712Z,1009.84
2018-09-29T02:20:07.849Z,1009.82
2018-09-29T02:21:14.019Z,1009.86
2018-09-29T02:22:20.167Z,1009.88
2018-09-29T02:23:26.327Z,1009.84
2018-09-29T02:24:32.470Z,1009.83
2018-09-29T02:25:38.628Z,1009.84
2018-09-29T02:26:44.792Z,1009.80
2018-09-29T02:27:50.959Z,1009.77
2018-09-29T02:28:57.155Z,1009.84
2018-09-29T02:30:03.280Z,1009.81
2018-09-29T02:31:09.422Z,1009.83
2018-09-29T02:32:15.573Z,1009.79
2018-09-29T02:33:21.741Z,1009.80
2018-09-29T02:34:27.898Z,1009.77
2018-09-29T02:35:34.053Z,1009.80
2018-09-29T02:36:40.199Z,1009.76
2018-09-29T02:37:46.369Z,1009.76
2018-09-29T02:38:52.528Z,1009.81
2018-09-29T02:39:58.691Z,1009.77
2018-09-29T02:41:04.845Z,1009.86
2018-09-29T02:42:11.004Z,1009.79
2018-09-29T02:43:17.277Z,1009.79
2018-09-29T02:44:23.324Z,1009.82
2018-09-29T02:45:29.468Z,1009.78
2018-09-29T02:46:35.630Z,1009.80
2018-09-29T02:47:41.798Z,1009.81
2018-09-29T02:48:49.075Z,1009.77
2018-09-29T02:49:54.103Z,1009.77
2018-09-29T02:51:00.251Z,1009.81
2018-09-29T02:52:06.399Z,1009.80
2018-09-29T02:53:12.558Z,1009.78
2018-09-29T02:54:19.722Z,1009.76
2018-09-29T02:55:24.882Z,1009.81
2018-09-29T02:56:31.043Z,1009.84
2018-09-29T02:57:37.281Z,1009.82
2018-09-29T02:58:44.347Z,1009.79
2018-09-29T02:59:50.524Z,1009.87
2018-09-29T03:00:55.669Z,1009.84
2018-09-29T03:02:01.829Z,1009.84
2018-09-29T03:03:07.980Z,1009.83
2018-09-29T03:04:14.133Z,1009.84
2018-09-29T03:05:20.298Z,1009.81
2018-09-29T03:06:26.451Z,1009.80
2018-09-29T03:07:32.624Z,1009.82
2018-09-29T03:08:38.785Z,1009.80
2018-09-29T03:09:44.920Z,1009.72
2018-09-29T03:10:51.074Z,1009.77
2018-09-29T03:11:57.278Z,1009.76
2018-09-29T03:13:03.374Z,1009.77
2018-09-29T03:14:09.535Z,1009.80
2018-09-29T03:15:15.690Z,1009.76
2018-09-29T03:16:21.849Z,1009.78
2018-09-29T03:17:28.008Z,1009.80
2018-09-29T03:18:34.151Z,1009.80
2018-09-29T03:19:40.315Z,1009.75
2018-09-29T03:20:46.473Z,1009.80
2018-09-29T03:21:52.626Z,1009.74
2018-09-29T03:22:58.781Z,1009.80
2018-09-29T03:24:04.959Z,1009.75
2018-09-29T03:25:11.107Z,1009.80
2018-09-29T03:26:17.298Z,1009.78
2018-09-29T03:27:23.384Z,1009.84
2018-09-29T03:28:29.554Z,1009.83
2018-09-29T03:29:35.704Z,1009.82
2018-09-29T03:30:41.871Z,1009.85
2018-09-29T03:31:47.538Z,1009.87
2018-09-29T03:32:54.160Z,1009.86
2018-09-29T03:34:00.305Z,1009.88
2018-09-29T03:35:06.470Z,1009.87
2018-09-29T03:36:12.614Z,1009.89
2018-09-29T03:37:18.763Z,1009.90
2018-09-29T03:38:24.911Z,1009.91
2018-09-29T03:39:31.072Z,1009.89
2018-09-29T03:40:37.283Z,1009.91
2018-09-29T03:41:43.365Z,1009.89
2018-09-29T03:42:49.522Z,1009.89
2018-09-29T03:43:55.672Z,1009.86
2018-09-29T03:45:01.824Z,1009.89
2018-09-29T03:46:08.017Z,1009.80
2018-09-29T03:47:14.136Z,1009.88
2018-09-29T03:48:20.291Z,1009.87
2018-09-29T03:49:26.448Z,1009.90
2018-09-29T03:50:32.597Z,1009.91
2018-09-29T03:51:38.739Z,1009.84
2018-09-29T03:52:44.883Z,1009.93
2018-09-29T03:53:51.049Z,1009.93
2018-09-29T03:54:57.290Z,1009.87
2018-09-29T03:56:03.347Z,1009.88
2018-09-29T03:57:09.503Z,1009.90
2018-09-29T03:58:15.651Z,1010.00
2018-09-29T03:59:21.826Z,1009.96
2018-09-29T04:00:27.955Z,1009.94
2018-09-29T04:01:34.105Z,1009.95
2018-09-29T04:02:40.271Z,1009.92
2018-09-29T04:03:46.405Z,1009.92
2018-09-29T04:04:53.556Z,1009.98
2018-09-29T04:05:58.706Z,1009.93
2018-09-29T04:07:04.852Z,1009.92
2018-09-29T04:08:10.998Z,1009.93
2018-09-29T04:09:17.147Z,1009.96
2018-09-29T04:10:23.306Z,1009.94
2018-09-29T04:11:29.449Z,1009.91
2018-09-29T04:12:35.587Z,1009.96
2018-09-29T04:13:41.739Z,1009.90
2018-09-29T04:14:47.883Z,1009.90
2018-09-29T04:15:54.028Z,1009.93
2018-09-29T04:17:00.159Z,1009.85
2018-09-29T04:18:06.324Z,1009.85
2018-09-29T04:19:12.467Z,1009.85
2018-09-29T04:20:18.616Z,1009.89
2018-09-29T04:21:24.768Z,1009.95
2018-09-29T04:22:30.910Z,1009.94
2018-09-29T04:23:37.061Z,1009.93
2018-09-29T04:24:43.281Z,1009.91
2018-09-29T04:25:49.373Z,1009.99
2018-09-29T04:26:55.523Z,1010.04
2018-09-29T04:28:01.652Z,1009.92
2018-09-29T04:29:07.792Z,1009.95
2018-09-29T04:30:13.957Z,1009.92
2018-09-29T04:31:20.116Z,1009.96
2018-09-29T04:32:26.249Z,1009.91
2018-09-29T04:33:32.425Z,1009.88
2018-09-29T04:34:38.550Z,1009.87
2018-09-29T04:35:44.720Z,1009.88
2018-09-29T04:36:50.863Z,1009.93
2018-09-29T04:37:57.014Z,1009.80
2018-09-29T04:39:03.269Z,1009.88
2018-09-29T04:40:09.319Z,1009.85
2018-09-29T04:41:15.475Z,1009.84
2018-09-29T04:42:22.612Z,1009.83
2018-09-29T04:43:27.774Z,1009.78
2018-09-29T04:44:33.923Z,1009.83
2018-09-29T04:45:40.085Z,1009.78
2018-09-29T04:46:46.233Z,1009.77
2018-09-29T04:47:53.374Z,1009.77
2018-09-29T04:48:58.556Z,1009.83
2018-09-29T04:50:04.681Z,1009.76
2018-09-29T04:51:10.844Z,1009.80
2018-09-29T04:52:17.985Z,1009.76
2018-09-29T04:53:23.137Z,1009.75
2018-09-29T04:54:29.307Z,1009.77
2018-09-29T04:55:35.441Z,1009.76
2018-09-29T04:56:41.588Z,1009.78
2018-09-29T04:57:47.746Z,1009.79
2018-09-29T04:58:53.893Z,1009.76
2018-09-29T05:00:00.069Z,1009.79
2018-09-29T05:01:06.215Z,1009.80
2018-09-29T05:02:12.352Z,1009.81
2018-09-29T05:03:18.511Z,1009.82
2018-09-29T05:04:25.946Z,1009.88
2018-09-29T05:05:30.819Z,1009.89
2018-09-29T05:06:37.162Z,1009.86
2018-09-29T05:07:43.104Z,1009.87
2018-09-29T05:08:49.286Z,1009.85
2018-09-29T05:09:55.385Z,1009.88
2018-09-29T05:11:01.554Z,1009.92
2018-09-29T05:12:07.693Z,1009.95
2018-09-29T05:13:13.854Z,1009.99
2018-09-29T05:14:20.020Z,1009.95
2018-09-29T05:15:26.155Z,1010.00
2018-09-29T05:16:32.291Z,1009.97
2018-09-29T05:17:38.438Z,1010.01
2018-09-29T05:18:44.586Z,1010.03
2018-09-29T05:19:50.723Z,1010.05
2018-09-29T05:20:56.895Z,1010.05
2018-09-29T05:22:03.051Z,1010.02
2018-09-29T05:23:09.309Z,1010.07
2018-09-29T05:24:15.329Z,1010.05
2018-09-29T05:25:21.480Z,1010.15
2018-09-29T05:26:27.633Z,1010.16
2018-09-29T05:27:33.774Z,1010.17
2018-09-29T05:28:39.933Z,1010.22
2018-09-29T05:29:46.080Z,1010.24
2018-09-29T05:30:52.233Z,1010.22
2018-09-29T05:31:58.383Z,1010.24
2018-09-29T05:33:04.521Z,1010.23
2018-09-29T05:34:10.664Z,1010.34
2018-09-29T05:35:16.815Z,1010.32
2018-09-29T05:36:22.959Z,1010.32
2018-09-29T05:37:29.125Z,1010.40
2018-09-29T05:38:35.356Z,1010.39
2018-09-29T05:39:41.408Z,1010.35
2018-09-29T05:40:47.572Z,1010.31
2018-09-29T05:41:53.696Z,1010.39
2018-09-29T05:42:59.851Z,1010.31
2018-09-29T05:44:06.003Z,1010.33
2018-09-29T05:45:12.146Z,1010.41
2018-09-29T05:46:18.303Z,1010.39
2018-09-29T05:47:24.460Z,1010.40
2018-09-29T05:48:30.598Z,1010.41
2018-09-29T05:49:36.743Z,1010.45
2018-09-29T05:50:42.902Z,1010.42
2018-09-29T05:51:49.044Z,1010.45
2018-09-29T05:52:55.195Z,1010.43
2018-09-29T05:54:01.412Z,1010.45
2018-09-29T05:55:07.482Z,1010.47
2018-09-29T05:56:13.649Z,1010.36
2018-09-29T05:57:19.819Z,1010.38
2018-09-29T05:58:25.952Z,1010.44
2018-09-29T05:59:33.113Z,1010.54
2018-09-29T06:00:38.337Z,1010.54
2018-09-29T06:01:44.406Z,1010.51
2018-09-29T06:02:51.547Z,1010.48
2018-09-29T06:03:56.713Z,1010.49
2018-09-29T06:05:02.864Z,1010.45
2018-09-29T06:06:09.023Z,1010.43
2018-09-29T06:07:15.214Z,1010.43
2018-09-29T06:08:22.342Z,1010.44
2018-09-29T06:09:27.484Z,1010.43
2018-09-29T06:10:33.637Z,1010.42
2018-09-29T06:11:39.797Z,1010.44
2018-09-29T06:12:45.968Z,1010.45
2018-09-29T06:13:52.113Z,1010.40
2018-09-29T06:14:58.277Z,1010.40
2018-09-29T06:16:04.428Z,1010.40
2018-09-29T06:17:10.560Z,1010.46
2018-09-29T06:18:16.753Z,1010.47
2018-09-29T06:19:22.887Z,1010.48
2018-09-29T06:20:30.036Z,1010.52
2018-09-29T06:21:36.285Z,1010.51
2018-09-29T06:22:41.369Z,1010.53
2018-09-29T06:23:47.512Z,1010.58
2018-09-29T06:24:53.685Z,1010.54
2018-09-29T06:25:59.834Z,1010.65
2018-09-29T06:27:05.983Z,1010.52
2018-09-29T06:28:12.146Z,1010.55
2018-09-29T06:29:18.345Z,1010.55
2018-09-29T06:30:24.477Z,1010.56
2018-09-29T06:31:30.639Z,1010.51
2018-09-29T06:32:36.783Z,1010.49
2018-09-29T06:33:42.954Z,1010.67
2018-09-29T06:34:49.124Z,1010.57
2018-09-29T06:35:55.303Z,1010.58
2018-09-29T06:37:01.463Z,1010.63
2018-09-29T06:38:07.621Z,1010.68
2018-09-29T06:39:13.788Z,1010.57
2018-09-29T06:40:19.947Z,1010.59
2018-09-29T06:41:26.128Z,1010.55
2018-09-29T06:42:32.343Z,1010.55
2018-09-29T06:43:39.471Z,1010.52
2018-09-29T06:44:44.630Z,1010.49
2018-09-29T06:45:50.967Z,1010.55
2018-09-29T06:46:57.980Z,1010.51
2018-09-29T06:48:03.206Z,1010.51
2018-09-29T06:49:09.339Z,1010.51
2018-09-29T06:50:15.494Z,1010.50
2018-09-29T06:51:21.702Z,1010.50
2018-09-29T06:52:27.904Z,1010.54
2018-09-29T06:53:34.049Z,1010.54
2018-09-29T06:54:40.724Z,1010.58
2018-09-29T06:55:47.391Z,1010.57
2018-09-29T06:56:52.581Z,1010.54
2018-09-29T06:57:58.746Z,1010.58
2018-09-29T06:59:04.939Z,1010.55
2018-09-29T07:00:11.120Z,1010.57
2018-09-29T07:01:17.298Z,1010.68
2018-09-29T07:02:23.477Z,1010.64
2018-09-29T07:03:29.682Z,1010.65
2018-09-29T07:04:35.857Z,1010.69
2018-09-29T07:05:42.057Z,1010.66
2018-09-29T07:06:48.282Z,1010.67
2018-09-29T07:07:54.418Z,1010.69
2018-09-29T07:09:00.609Z,1010.70
2018-09-29T07:10:06.302Z,1010.68
2018-09-29T07:11:12.979Z,1010.69
2018-09-29T07:12:19.191Z,1010.68
2018-09-29T07:13:25.377Z,1010.70
2018-09-29T07:14:31.603Z,1010.69
2018-09-29T07:15:37.763Z,1010.67
2018-09-29T07:16:43.976Z,1010.72
2018-09-29T07:17:50.147Z,1010.71
2018-09-29T07:18:56.343Z,1010.71
2018-09-29T07:20:03.572Z,1010.74
2018-09-29T07:21:08.733Z,1010.70
2018-09-29T07:22:15.940Z,1010.68
2018-09-29T07:23:21.156Z,1010.75
2018-09-29T07:24:27.346Z,1010.72
2018-09-29T07:25:33.584Z,1010.67
2018-09-29T07:26:39.745Z,1010.71
2018-09-29T07:27:45.959Z,1010.70
2018-09-29T07:28:52.150Z,1010.74
2018-09-29T07:29:58.350Z,1010.74
2018-09-29T07:31:04.561Z,1010.70
2018-09-29T07:32:10.758Z,1010.74
2018-09-29T07:33:16.968Z,1010.72
2018-09-29T07:34:23.158Z,1010.71
2018-09-29T07:35:29.370Z,1010.74
2018-09-29T07:36:35.618Z,1010.68
2018-09-29T07:37:41.779Z,1010.71
2018-09-29T07:38:47.967Z,1010.70
2018-09-29T07:39:54.285Z,1010.68
2018-09-29T07:41:00.398Z,1010.74
2018-09-29T07:42:06.615Z,1010.69
2018-09-29T07:43:12.801Z,1010.68
2018-09-29T07:44:19.029Z,1010.58
2018-09-29T07:45:25.235Z,1010.56
2018-09-29T07:46:31.432Z,1010.57
2018-09-29T07:47:40.590Z,1010.56
2018-09-29T07:48:43.874Z,1010.50
2018-09-29T07:49:50.079Z,1010.55
2018-09-29T07:50:56.300Z,1010.56
2018-09-29T07:52:02.524Z,1010.53
2018-09-29T07:53:08.752Z,1010.54
2018-09-29T07:54:14.957Z,1010.45
2018-09-29T07:55:21.278Z,1010.46
2018-09-29T07:56:27.419Z,1010.43
2018-09-29T07:57:33.622Z,1010.46
2018-09-29T07:58:39.852Z,1010.51
2018-09-29T07:59:46.054Z,1010.43
2018-09-29T08:01:58.535Z,1010.46
2018-09-29T08:03:04.258Z,1010.50
2018-09-29T08:04:10.965Z,1010.52
2018-09-29T08:05:17.522Z,1010.47
2018-09-29T08:06:23.466Z,1010.52
2018-09-29T08:07:29.697Z,1010.51
2018-09-29T08:08:35.928Z,1010.49
2018-09-29T08:09:42.161Z,1010.46
2018-09-29T08:10:48.400Z,1010.48
2018-09-29T08:11:54.647Z,1010.52
2018-09-29T08:13:00.906Z,1010.50
2018-09-29T08:14:07.289Z,1010.48
2018-09-29T08:15:13.411Z,1010.53
2018-09-29T08:16:19.676Z,1010.52
2018-09-29T08:17:26.232Z,1010.56
2018-09-29T08:18:32.181Z,1010.54
2018-09-29T08:19:38.441Z,1010.56
2018-09-29T08:20:44.745Z,1010.54
2018-09-29T08:21:51.965Z,1010.57
2018-09-29T08:22:57.287Z,1010.57
2018-09-29T08:25:09.777Z,1010.56
2018-09-29T08:26:16.047Z,1010.57
2018-09-29T08:27:22.337Z,1010.59
2018-09-29T08:28:28.600Z,1010.59
2018-09-29T08:29:35.886Z,1010.59
2018-09-29T08:30:41.156Z,1010.56
2018-09-29T08:31:47.429Z,1010.55
2018-09-29T08:32:53.720Z,1010.53
2018-09-29T08:33:59.978Z,1010.55
2018-09-29T08:35:06.258Z,1010.56
2018-09-29T08:36:12.540Z,1010.55
2018-09-29T08:37:18.813Z,1010.57
2018-09-29T08:38:25.107Z,1010.54
2018-09-29T08:39:31.387Z,1010.53
2018-09-29T08:40:37.655Z,1010.48
2018-09-29T08:41:43.966Z,1010.48
2018-09-29T08:42:50.246Z,1010.44
2018-09-29T08:43:56.528Z,1010.38
2018-09-29T08:45:02.831Z,1010.39
2018-09-29T08:46:09.108Z,1010.38
2018-09-29T08:47:15.390Z,1010.30
2018-09-29T08:48:21.696Z,1010.31
2018-09-29T08:49:27.985Z,1010.37
2018-09-29T08:50:34.279Z,1010.35
2018-09-29T08:51:40.568Z,1010.33
2018-09-29T08:52:46.860Z,1010.28
2018-09-29T08:53:53.174Z,1010.26
2018-09-29T08:54:59.458Z,1010.28
2018-09-29T08:56:05.767Z,1010.26
2018-09-29T08:57:12.060Z,1010.29
2018-09-29T08:58:18.370Z,1010.28
2018-09-29T08:59:24.660Z,1010.25
2018-09-29T09:00:30.980Z,1010.23
2018-09-29T09:01:37.272Z,1010.24
2018-09-29T09:02:43.583Z,1010.20
2018-09-29T09:03:49.946Z,1010.19
2018-09-29T09:04:56.282Z,1010.23
2018-09-29T09:06:02.513Z,1010.25
2018-09-29T09:07:09.808Z,1010.24
2018-09-29T09:08:15.124Z,1010.23
2018-09-29T09:09:21.449Z,1010.23
2018-09-29T09:10:27.748Z,1010.23
2018-09-29T09:11:34.072Z,1010.22
2018-09-29T09:12:40.401Z,1010.23
2018-09-29T09:13:46.711Z,1010.18
2018-09-29T09:14:53.038Z,1010.18
2018-09-29T09:15:59.340Z,1010.15
2018-09-29T09:17:05.659Z,1010.19
2018-09-29T09:18:11.989Z,1010.15
2018-09-29T09:19:17.822Z,1010.15
2018-09-29T09:20:24.632Z,1010.18
2018-09-29T09:21:31.964Z,1010.17
2018-09-29T09:22:37.299Z,1010.13
2018-09-29T09:23:43.645Z,1010.14
2018-09-29T09:24:49.948Z,1010.14
2018-09-29T09:25:56.275Z,1010.17
2018-09-29T09:27:02.596Z,1010.14
2018-09-29T09:28:08.933Z,1010.14
2018-09-29T09:29:15.283Z,1010.13
2018-09-29T09:30:21.610Z,1010.13
2018-09-29T09:31:27.928Z,1010.14
2018-09-29T09:32:34.290Z,1010.12
2018-09-29T09:33:40.601Z,1010.12
2018-09-29T09:34:46.951Z,1010.17
2018-09-29T09:35:53.287Z,1010.10
2018-09-29T09:36:59.623Z,1010.16
2018-09-29T09:38:05.971Z,1010.08
2018-09-29T09:39:12.322Z,1010.10
2018-09-29T09:40:19.651Z,1010.03
2018-09-29T09:41:24.997Z,1010.05
2018-09-29T09:42:31.350Z,1010.09
2018-09-29T09:43:37.780Z,1010.11
2018-09-29T09:44:44.055Z,1010.07
2018-09-29T09:45:50.412Z,1010.05
2018-09-29T09:46:56.765Z,1010.06
2018-09-29T09:48:03.127Z,1010.04
2018-09-29T09:49:09.468Z,1010.00
2018-09-29T09:50:15.829Z,1009.92
2018-09-29T09:51:22.274Z,1009.89
2018-09-29T09:52:28.562Z,1009.88
2018-09-29T09:53:34.924Z,1009.88
2018-09-29T09:54:42.282Z,1009.88
2018-09-29T09:55:47.643Z,1009.89
2018-09-29T09:56:54.000Z,1009.87
2018-09-29T09:58:00.383Z,1009.88
2018-09-29T09:59:06.749Z,1009.83
2018-09-29T10:00:13.120Z,1009.84
2018-09-29T10:01:19.488Z,1009.81
2018-09-29T10:02:25.858Z,1009.85
2018-09-29T10:03:31.739Z,1009.83
2018-09-29T10:04:38.614Z,1009.79
2018-09-29T10:05:44.990Z,1009.79
2018-09-29T10:06:51.764Z,1009.75
2018-09-29T10:07:57.719Z,1009.69
2018-09-29T10:09:05.099Z,1009.70
2018-09-29T10:10:10.506Z,1009.68
2018-09-29T10:11:17.859Z,1009.69
2018-09-29T10:12:23.271Z,1009.67
2018-09-29T10:13:29.638Z,1009.67
2018-09-29T10:14:36.027Z,1009.66
2018-09-29T10:15:42.408Z,1009.66
2018-09-29T10:16:48.786Z,1009.66
2018-09-29T10:17:55.172Z,1009.69
2018-09-29T10:19:01.570Z,1009.68
2018-09-29T10:20:07.949Z,1009.62
2018-09-29T10:21:15.334Z,1009.56
2018-09-29T10:22:20.730Z,1009.60
2018-09-29T10:23:27.125Z,1009.59
2018-09-29T10:24:33.506Z,1009.55
2018-09-29T10:25:39.916Z,1009.56
2018-09-29T10:26:46.309Z,1009.48
2018-09-29T10:27:52.686Z,1009.51
2018-09-29T10:28:59.078Z,1009.54
2018-09-29T10:30:06.472Z,1009.40
2018-09-29T10:31:11.890Z,1009.41
2018-09-29T10:32:18.286Z,1009.41
2018-09-29T10:33:25.671Z,1009.42
2018-09-29T10:34:30.570Z,1009.41
2018-09-29T10:35:37.460Z,1009.43
2018-09-29T10:36:43.864Z,1009.43
2018-09-29T10:37:51.281Z,1009.42
2018-09-29T10:38:56.684Z,1009.42
2018-09-29T10:40:03.081Z,1009.41
2018-09-29T10:41:09.494Z,1009.40
2018-09-29T10:42:15.894Z,1009.39
2018-09-29T10:43:22.305Z,1009.35
2018-09-29T10:44:28.712Z,1009.35
2018-09-29T10:45:35.129Z,1009.35
2018-09-29T10:46:41.532Z,1009.36
2018-09-29T10:47:47.464Z,1009.33
2018-09-29T10:48:54.360Z,1009.30
2018-09-29T10:50:00.796Z,1009.33
2018-09-29T10:51:07.297Z,1009.38
2018-09-29T10:52:13.629Z,1009.33
2018-09-29T10:53:20.034Z,1009.30
2018-09-29T10:54:26.445Z,1009.32
2018-09-29T10:55:32.886Z,1009.24
2018-09-29T10:56:39.297Z,1009.22
2018-09-29T10:57:45.710Z,1009.23
2018-09-29T10:58:52.114Z,1009.22
2018-09-29T10:59:58.543Z,1009.11
2018-09-29T11:01:04.975Z,1009.15
2018-09-29T11:02:11.395Z,1009.09
2018-09-29T11:03:17.868Z,1009.10
2018-09-29T11:04:24.241Z,1009.07
2018-09-29T11:05:30.698Z,1009.00
2018-09-29T11:06:37.117Z,1008.98
2018-09-29T11:07:43.511Z,1008.99
2018-09-29T11:08:49.959Z,1008.99
2018-09-29T11:09:56.391Z,1008.98
2018-09-29T11:11:02.819Z,1008.96
2018-09-29T11:12:09.243Z,1008.93
2018-09-29T11:13:15.678Z,1008.93
2018-09-29T11:14:22.144Z,1008.88
2018-09-29T11:15:28.542Z,1008.83
2018-09-29T11:16:34.980Z,1008.83
2018-09-29T11:17:42.414Z,1008.78
2018-09-29T11:18:48.874Z,1008.74
2018-09-29T11:19:54.305Z,1008.78
2018-09-29T11:21:01.815Z,1008.69
2018-09-29T11:22:07.271Z,1008.72
2018-09-29T11:23:13.798Z,1008.68
2018-09-29T11:24:20.354Z,1008.67
2018-09-29T11:25:26.947Z,1008.66
2018-09-29T11:26:33.564Z,1008.60
2018-09-29T11:27:40.340Z,1008.59
2018-09-29T11:28:46.871Z,1008.59
2018-09-29T11:29:53.564Z,1008.61
2018-09-29T11:31:00.309Z,1008.53
2018-09-29T11:32:07.094Z,1008.52
2018-09-29T11:33:13.856Z,1008.50
2018-09-29T11:34:20.632Z,1008.45
2018-09-29T11:35:27.459Z,1008.45
2018-09-29T11:36:34.288Z,1008.43
2018-09-29T11:37:41.151Z,1008.39
2018-09-29T11:38:48.039Z,1008.41
2018-09-29T11:39:54.926Z,1008.45
2018-09-29T11:41:01.919Z,1008.45
2018-09-29T11:42:08.775Z,1008.41
2018-09-29T11:43:16.008Z,1008.34
2018-09-29T11:44:22.653Z,1008.32
2018-09-29T11:45:29.605Z,1008.23
2018-09-29T11:46:36.557Z,1008.22
2018-09-29T11:47:43.513Z,1008.26
2018-09-29T11:48:50.472Z,1008.22
2018-09-29T11:49:57.432Z,1008.19
2018-09-29T11:51:04.409Z,1008.11
2018-09-29T11:52:11.385Z,1008.14
2018-09-29T11:53:18.826Z,1008.10
2018-09-29T11:54:25.356Z,1008.09
2018-09-29T11:55:32.359Z,1008.11
2018-09-29T11:56:39.358Z,1007.98
2018-09-29T11:57:46.353Z,1007.99
2018-09-29T11:58:53.366Z,1007.96
2018-09-29T12:00:00.408Z,1007.94
2018-09-29T12:01:07.405Z,1007.94
2018-09-29T12:02:14.447Z,1007.99
2018-09-29T12:03:21.471Z,1007.90
2018-09-29T12:04:28.523Z,1007.85
2018-09-29T12:05:35.534Z,1007.88
2018-09-29T12:06:42.640Z,1007.82
2018-09-29T12:07:49.692Z,1007.82
2018-09-29T12:08:56.714Z,1007.81
2018-09-29T12:10:03.783Z,1007.84
2018-09-29T12:11:10.866Z,1007.79
2018-09-29T12:12:17.949Z,1007.81
2018-09-29T12:13:25.028Z,1007.76
2018-09-29T12:14:32.121Z,1007.83
2018-09-29T12:15:39.246Z,1007.76
2018-09-29T12:16:46.328Z,1007.74
2018-09-29T12:17:53.433Z,1007.78
2018-09-29T12:19:00.531Z,1007.75
2018-09-29T12:20:07.655Z,1007.69
2018-09-29T12:21:14.823Z,1007.67
2018-09-29T12:22:21.936Z,1007.68
2018-09-29T12:23:29.016Z,1007.64
2018-09-29T12:24:36.140Z,1007.60
2018-09-29T12:25:43.277Z,1007.63
2018-09-29T12:26:50.426Z,1007.57
2018-09-29T12:27:57.536Z,1007.48
2018-09-29T12:29:04.674Z,1007.47
2018-09-29T12:30:11.825Z,1007.43
2018-09-29T12:31:18.960Z,1007.39
2018-09-29T12:32:26.097Z,1007.36
2018-09-29T12:33:33.229Z,1007.34
2018-09-29T12:34:40.354Z,1007.36
2018-09-29T12:35:47.530Z,1007.31
2018-09-29T12:36:54.689Z,1007.31
2018-09-29T12:38:01.775Z,1007.31
2018-09-29T12:39:08.922Z,1007.30
2018-09-29T12:40:17.054Z,1007.28
2018-09-29T12:41:23.221Z,1007.28
2018-09-29T12:42:31.356Z,1007.27
2018-09-29T12:43:38.481Z,1007.21
2018-09-29T12:44:44.706Z,1007.21
2018-09-29T12:45:51.786Z,1007.22
2018-09-29T12:46:59.247Z,1007.22
2018-09-29T12:48:06.098Z,1007.22
2018-09-29T12:49:13.270Z,1007.18
2018-09-29T12:50:20.429Z,1007.15
2018-09-29T12:51:27.665Z,1007.15
2018-09-29T12:52:34.775Z,1007.06
2018-09-29T12:53:41.939Z,1007.07
2018-09-29T12:54:50.088Z,1007.12
2018-09-29T12:55:56.263Z,1007.09
2018-09-29T12:57:03.462Z,1007.06
2018-09-29T12:58:10.602Z,1007.05
2018-09-29T12:59:17.788Z,1007.01
2018-09-29T13:00:24.951Z,1006.99
2018-09-29T13:01:32.140Z,1007.00
2018-09-29T13:02:39.343Z,1007.01
2018-09-29T13:03:46.510Z,1006.97
2018-09-29T13:04:54.712Z,1006.91
2018-09-29T13:06:01.917Z,1006.93
2018-09-29T13:07:09.143Z,1006.93
2018-09-29T13:08:15.377Z,1006.88
2018-09-29T13:09:22.649Z,1006.90
2018-09-29T13:10:29.868Z,1006.80
2018-09-29T13:11:37.145Z,1006.77
2018-09-29T13:12:44.420Z,1006.69
2018-09-29T13:13:51.705Z,1006.67
2018-09-29T13:14:59.018Z,1006.68
2018-09-29T13:16:07.321Z,1006.67
2018-09-29T13:17:13.646Z,1006.66
2018-09-29T13:18:20.959Z,1006.62
2018-09-29T13:19:28.292Z,1006.61
2018-09-29T13:20:35.610Z,1006.60
2018-09-29T13:21:42.915Z,1006.61
2018-09-29T13:22:51.237Z,1006.60
2018-09-29T13:23:58.535Z,1006.62